Ana Sayfa
METAR-TAF:

METAR-TAF

Havaalanları :

Dogonbadan, İran

Enlem: 30-26N, Boylam: 050-46E, yükseklik: 738 m

Güncel hava durumu gözlemi

Rapor saat 02:00 UTC de 37 dakika önce yapıldı.
Sakin rüzgar
Sıcaklık 7°C
Nem 87%
Basınç 1020 hPa
Görüş mesafesi: 8000 m
4000 ft yükseklikte parçalı bulutlu

METAR: OIAH 200200Z 00000KT 8000 SCT040 07/05 Q1020

Saat: 06:07 (02:37 UTC)


TAF: eksik

4.000'den fazla havaalanı için hava durumu gözlemleri ve tahminleri (METAR ve TAF raporları).

Kullanılabilir istasyonlar harita üzerinde sarı ve kırmızı noktalarla gösterilir.

İstasyonun adını görmek için fareyi noktanın üzerinde gezdirin.

Sonrasında hava gözlem ve tahminlerini görmek için tıklayın.

Haritayı değiştirmek için: yaklaştırmak için siyah artı işaretli yeşil düğmeye ve uzaklaştırmak için de eksi işaretli düğmeye hızla tıklayın; bitişik haritalar için yeşil okları kullanın.


METAR-TAF: